sensor_id;sensor_type;location;lat;lon;timestamp;P1;durP1;ratioP1;P2;durP2;ratioP2
33760;SDS011;20084;47.912;19.044;2023-08-31T00:00:10;1.20;;;1.10;;
33760;SDS011;20084;47.912;19.044;2023-08-31T00:02:37;1.25;;;1.00;;
33760;SDS011;20084;47.912;19.044;2023-08-31T00:05:04;2.65;;;1.00;;
33760;SDS011;20084;47.912;19.044;2023-08-31T00:07:30;1.10;;;1.00;;
33760;SDS011;20084;47.912;19.044;2023-08-31T00:09:56;1.23;;;1.10;;
33760;SDS011;20084;47.912;19.044;2023-08-31T00:12:23;1.08;;;1.00;;
33760;SDS011;20084;47.912;19.044;2023-08-31T00:14:49;2.45;;;1.17;;
33760;SDS011;20084;47.912;19.044;2023-08-31T00:17:15;1.40;;;0.90;;
33760;SDS011;20084;47.912;19.044;2023-08-31T00:19:42;1.55;;;1.00;;
33760;SDS011;20084;47.912;19.044;2023-08-31T00:22:08;1.17;;;1.10;;
33760;SDS011;20084;47.912;19.044;2023-08-31T00:24:34;1.40;;;1.15;;
33760;SDS011;20084;47.912;19.044;2023-08-31T00:27:01;1.08;;;0.98;;
33760;SDS011;20084;47.912;19.044;2023-08-31T00:29:28;1.17;;;1.08;;
33760;SDS011;20084;47.912;19.044;2023-08-31T00:31:54;1.90;;;1.05;;
33760;SDS011;20084;47.912;19.044;2023-08-31T00:34:21;0.90;;;0.90;;
33760;SDS011;20084;47.912;19.044;2023-08-31T00:36:47;1.20;;;1.10;;
33760;SDS011;20084;47.912;19.044;2023-08-31T00:39:13;1.60;;;1.27;;
33760;SDS011;20084;47.912;19.044;2023-08-31T00:41:39;0.80;;;0.80;;
33760;SDS011;20084;47.912;19.044;2023-08-31T00:44:05;1.30;;;1.20;;
33760;SDS011;20084;47.912;19.044;2023-08-31T00:46:31;2.08;;;1.20;;
33760;SDS011;20084;47.912;19.044;2023-08-31T00:48:57;2.88;;;1.20;;
33760;SDS011;20084;47.912;19.044;2023-08-31T00:51:23;2.95;;;1.35;;
33760;SDS011;20084;47.912;19.044;2023-08-31T00:53:51;1.58;;;1.08;;
33760;SDS011;20084;47.912;19.044;2023-08-31T00:56:19;2.00;;;1.40;;
33760;SDS011;20084;47.912;19.044;2023-08-31T00:58:45;1.50;;;1.40;;
33760;SDS011;20084;47.912;19.044;2023-08-31T01:04:12;1.50;;;1.30;;
33760;SDS011;20084;47.912;19.044;2023-08-31T01:09:46;1.38;;;1.27;;
33760;SDS011;20084;47.912;19.044;2023-08-31T01:12:43;1.60;;;1.13;;
33760;SDS011;20084;47.912;19.044;2023-08-31T01:15:39;1.40;;;1.30;;
33760;SDS011;20084;47.912;19.044;2023-08-31T01:18:10;2.35;;;1.30;;
33760;SDS011;20084;47.912;19.044;2023-08-31T01:20:40;2.67;;;1.63;;
33760;SDS011;20084;47.912;19.044;2023-08-31T01:23:19;1.42;;;1.15;;
33760;SDS011;20084;47.912;19.044;2023-08-31T01:25:45;2.30;;;1.38;;
33760;SDS011;20084;47.912;19.044;2023-08-31T01:28:13;8.95;;;2.80;;
33760;SDS011;20084;47.912;19.044;2023-08-31T01:30:39;1.25;;;1.15;;
33760;SDS011;20084;47.912;19.044;2023-08-31T01:33:05;1.33;;;1.23;;
33760;SDS011;20084;47.912;19.044;2023-08-31T01:35:32;2.92;;;1.17;;
33760;SDS011;20084;47.912;19.044;2023-08-31T01:38:06;1.70;;;1.60;;
33760;SDS011;20084;47.912;19.044;2023-08-31T01:41:07;1.42;;;1.33;;
33760;SDS011;20084;47.912;19.044;2023-08-31T01:43:26;1.73;;;1.63;;
33760;SDS011;20084;47.912;19.044;2023-08-31T01:45:52;1.45;;;1.35;;
33760;SDS011;20084;47.912;19.044;2023-08-31T01:48:19;1.40;;;1.30;;
33760;SDS011;20084;47.912;19.044;2023-08-31T01:50:44;1.48;;;1.38;;
33760;SDS011;20084;47.912;19.044;2023-08-31T01:53:10;1.55;;;1.45;;
33760;SDS011;20084;47.912;19.044;2023-08-31T01:55:36;1.58;;;1.48;;
33760;SDS011;20084;47.912;19.044;2023-08-31T01:58:02;10.30;;;1.58;;
33760;SDS011;20084;47.912;19.044;2023-08-31T02:00:28;1.50;;;1.40;;
33760;SDS011;20084;47.912;19.044;2023-08-31T02:02:53;1.88;;;1.77;;
33760;SDS011;20084;47.912;19.044;2023-08-31T02:05:19;1.73;;;1.60;;
33760;SDS011;20084;47.912;19.044;2023-08-31T02:07:45;1.55;;;1.45;;
33760;SDS011;20084;47.912;19.044;2023-08-31T02:10:10;1.30;;;1.20;;
33760;SDS011;20084;47.912;19.044;2023-08-31T02:12:36;2.63;;;1.58;;
33760;SDS011;20084;47.912;19.044;2023-08-31T02:15:03;1.50;;;1.40;;
33760;SDS011;20084;47.912;19.044;2023-08-31T02:17:30;1.55;;;1.45;;
33760;SDS011;20084;47.912;19.044;2023-08-31T02:19:55;1.23;;;1.23;;
33760;SDS011;20084;47.912;19.044;2023-08-31T02:22:22;1.55;;;1.45;;
33760;SDS011;20084;47.912;19.044;2023-08-31T02:24:48;1.40;;;1.30;;
33760;SDS011;20084;47.912;19.044;2023-08-31T02:27:14;2.33;;;1.52;;
33760;SDS011;20084;47.912;19.044;2023-08-31T02:29:39;1.30;;;1.20;;
33760;SDS011;20084;47.912;19.044;2023-08-31T02:32:05;1.48;;;1.38;;
33760;SDS011;20084;47.912;19.044;2023-08-31T02:34:31;1.60;;;1.50;;
33760;SDS011;20084;47.912;19.044;2023-08-31T02:36:57;1.58;;;1.48;;
33760;SDS011;20084;47.912;19.044;2023-08-31T02:39:22;1.35;;;1.25;;
33760;SDS011;20084;47.912;19.044;2023-08-31T02:41:48;1.30;;;1.20;;
33760;SDS011;20084;47.912;19.044;2023-08-31T02:44:14;1.83;;;1.40;;
33760;SDS011;20084;47.912;19.044;2023-08-31T02:46:39;1.67;;;1.45;;
33760;SDS011;20084;47.912;19.044;2023-08-31T02:49:05;1.58;;;1.48;;
33760;SDS011;20084;47.912;19.044;2023-08-31T02:51:31;3.85;;;1.33;;
33760;SDS011;20084;47.912;19.044;2023-08-31T02:53:56;1.98;;;1.30;;
33760;SDS011;20084;47.912;19.044;2023-08-31T02:56:22;1.42;;;1.33;;
33760;SDS011;20084;47.912;19.044;2023-08-31T02:58:48;1.33;;;1.23;;
33760;SDS011;20084;47.912;19.044;2023-08-31T03:01:14;2.10;;;1.23;;
33760;SDS011;20084;47.912;19.044;2023-08-31T03:03:40;1.75;;;0.98;;
33760;SDS011;20084;47.912;19.044;2023-08-31T03:06:07;1.20;;;1.08;;
33760;SDS011;20084;47.912;19.044;2023-08-31T03:08:33;0.93;;;0.93;;
33760;SDS011;20084;47.912;19.044;2023-08-31T03:10:59;1.50;;;1.00;;
33760;SDS011;20084;47.912;19.044;2023-08-31T03:13:25;1.25;;;1.15;;
33760;SDS011;20084;47.912;19.044;2023-08-31T03:15:51;1.00;;;1.00;;
33760;SDS011;20084;47.912;19.044;2023-08-31T03:18:16;1.88;;;1.25;;
33760;SDS011;20084;47.912;19.044;2023-08-31T03:20:42;1.00;;;0.90;;
33760;SDS011;20084;47.912;19.044;2023-08-31T03:23:07;2.22;;;1.20;;
33760;SDS011;20084;47.912;19.044;2023-08-31T03:25:34;1.40;;;1.30;;
33760;SDS011;20084;47.912;19.044;2023-08-31T03:28:00;1.10;;;1.00;;
33760;SDS011;20084;47.912;19.044;2023-08-31T03:30:25;3.05;;;1.40;;
33760;SDS011;20084;47.912;19.044;2023-08-31T03:32:51;1.02;;;1.02;;
33760;SDS011;20084;47.912;19.044;2023-08-31T03:35:17;2.50;;;1.17;;
33760;SDS011;20084;47.912;19.044;2023-08-31T03:37:42;1.20;;;1.10;;
33760;SDS011;20084;47.912;19.044;2023-08-31T03:40:11;1.67;;;1.30;;
33760;SDS011;20084;47.912;19.044;2023-08-31T03:42:37;1.80;;;1.23;;
33760;SDS011;20084;47.912;19.044;2023-08-31T03:45:03;1.70;;;1.60;;
33760;SDS011;20084;47.912;19.044;2023-08-31T03:47:29;1.50;;;1.40;;
33760;SDS011;20084;47.912;19.044;2023-08-31T03:49:55;2.17;;;1.98;;
33760;SDS011;20084;47.912;19.044;2023-08-31T03:52:21;3.20;;;1.88;;
33760;SDS011;20084;47.912;19.044;2023-08-31T03:54:47;2.10;;;1.90;;
33760;SDS011;20084;47.912;19.044;2023-08-31T03:57:13;2.60;;;2.10;;
33760;SDS011;20084;47.912;19.044;2023-08-31T03:59:39;2.75;;;2.00;;
33760;SDS011;20084;47.912;19.044;2023-08-31T04:02:04;3.72;;;3.42;;
33760;SDS011;20084;47.912;19.044;2023-08-31T04:04:30;2.92;;;2.50;;
33760;SDS011;20084;47.912;19.044;2023-08-31T04:06:55;3.67;;;2.50;;
33760;SDS011;20084;47.912;19.044;2023-08-31T04:09:21;2.75;;;2.55;;
33760;SDS011;20084;47.912;19.044;2023-08-31T04:11:47;3.75;;;2.45;;
33760;SDS011;20084;47.912;19.044;2023-08-31T04:14:12;2.85;;;2.65;;
33760;SDS011;20084;47.912;19.044;2023-08-31T04:16:38;2.58;;;2.40;;
33760;SDS011;20084;47.912;19.044;2023-08-31T04:19:03;3.65;;;2.50;;
33760;SDS011;20084;47.912;19.044;2023-08-31T04:21:29;3.55;;;2.90;;
33760;SDS011;20084;47.912;19.044;2023-08-31T04:23:54;2.85;;;2.65;;
33760;SDS011;20084;47.912;19.044;2023-08-31T04:26:21;2.60;;;2.40;;
33760;SDS011;20084;47.912;19.044;2023-08-31T04:28:46;2.80;;;2.60;;
33760;SDS011;20084;47.912;19.044;2023-08-31T04:31:12;3.55;;;2.72;;
33760;SDS011;20084;47.912;19.044;2023-08-31T04:33:38;3.60;;;2.80;;
33760;SDS011;20084;47.912;19.044;2023-08-31T04:36:05;3.00;;;2.80;;
33760;SDS011;20084;47.912;19.044;2023-08-31T04:38:31;3.17;;;2.88;;
33760;SDS011;20084;47.912;19.044;2023-08-31T04:41:00;2.72;;;2.53;;
33760;SDS011;20084;47.912;19.044;2023-08-31T04:43:26;2.35;;;2.15;;
33760;SDS011;20084;47.912;19.044;2023-08-31T04:45:53;2.38;;;2.13;;
33760;SDS011;20084;47.912;19.044;2023-08-31T04:48:18;2.83;;;2.50;;
33760;SDS011;20084;47.912;19.044;2023-08-31T04:50:44;2.85;;;2.65;;
33760;SDS011;20084;47.912;19.044;2023-08-31T04:53:10;3.55;;;2.70;;
33760;SDS011;20084;47.912;19.044;2023-08-31T04:55:36;2.58;;;2.38;;
33760;SDS011;20084;47.912;19.044;2023-08-31T04:58:02;2.50;;;2.30;;
33760;SDS011;20084;47.912;19.044;2023-08-31T05:00:28;2.60;;;2.13;;
33760;SDS011;20084;47.912;19.044;2023-08-31T05:02:55;1.83;;;1.73;;
33760;SDS011;20084;47.912;19.044;2023-08-31T05:05:21;2.03;;;1.92;;
33760;SDS011;20084;47.912;19.044;2023-08-31T05:07:46;2.35;;;2.17;;
33760;SDS011;20084;47.912;19.044;2023-08-31T05:10:12;13.88;;;2.25;;
33760;SDS011;20084;47.912;19.044;2023-08-31T05:12:37;2.15;;;1.85;;
33760;SDS011;20084;47.912;19.044;2023-08-31T05:15:04;2.45;;;1.45;;
33760;SDS011;20084;47.912;19.044;2023-08-31T05:17:30;2.67;;;1.40;;
33760;SDS011;20084;47.912;19.044;2023-08-31T05:19:56;1.38;;;1.27;;
33760;SDS011;20084;47.912;19.044;2023-08-31T05:22:21;2.85;;;2.13;;
33760;SDS011;20084;47.912;19.044;2023-08-31T05:24:47;5.07;;;1.20;;
33760;SDS011;20084;47.912;19.044;2023-08-31T05:27:13;1.63;;;1.40;;
33760;SDS011;20084;47.912;19.044;2023-08-31T05:29:39;1.45;;;1.35;;
33760;SDS011;20084;47.912;19.044;2023-08-31T05:32:04;1.75;;;1.30;;
33760;SDS011;20084;47.912;19.044;2023-08-31T05:34:30;3.47;;;1.42;;
33760;SDS011;20084;47.912;19.044;2023-08-31T05:36:58;6.10;;;1.88;;
33760;SDS011;20084;47.912;19.044;2023-08-31T05:39:23;8.73;;;1.60;;
33760;SDS011;20084;47.912;19.044;2023-08-31T05:41:50;1.17;;;1.08;;
33760;SDS011;20084;47.912;19.044;2023-08-31T05:44:16;1.20;;;1.10;;
33760;SDS011;20084;47.912;19.044;2023-08-31T05:46:42;1.80;;;1.20;;
33760;SDS011;20084;47.912;19.044;2023-08-31T05:49:07;2.00;;;1.17;;
33760;SDS011;20084;47.912;19.044;2023-08-31T05:51:33;1.30;;;1.10;;
33760;SDS011;20084;47.912;19.044;2023-08-31T05:53:59;1.33;;;1.05;;
33760;SDS011;20084;47.912;19.044;2023-08-31T05:56:25;1.20;;;1.10;;
33760;SDS011;20084;47.912;19.044;2023-08-31T05:58:50;1.00;;;1.00;;
33760;SDS011;20084;47.912;19.044;2023-08-31T06:01:19;1.67;;;1.33;;
33760;SDS011;20084;47.912;19.044;2023-08-31T06:03:45;0.90;;;0.90;;
33760;SDS011;20084;47.912;19.044;2023-08-31T06:06:11;2.65;;;0.98;;
33760;SDS011;20084;47.912;19.044;2023-08-31T06:08:36;1.33;;;0.88;;
33760;SDS011;20084;47.912;19.044;2023-08-31T06:11:02;5.35;;;1.20;;
33760;SDS011;20084;47.912;19.044;2023-08-31T06:13:27;3.00;;;0.85;;
33760;SDS011;20084;47.912;19.044;2023-08-31T06:15:53;1.33;;;1.10;;
33760;SDS011;20084;47.912;19.044;2023-08-31T06:18:20;1.48;;;1.00;;
33760;SDS011;20084;47.912;19.044;2023-08-31T06:20:46;0.73;;;0.70;;
33760;SDS011;20084;47.912;19.044;2023-08-31T06:23:13;0.95;;;0.90;;
33760;SDS011;20084;47.912;19.044;2023-08-31T06:25:39;0.45;;;0.45;;
33760;SDS011;20084;47.912;19.044;2023-08-31T06:28:05;1.45;;;0.60;;
33760;SDS011;20084;47.912;19.044;2023-08-31T06:30:33;1.60;;;0.70;;
33760;SDS011;20084;47.912;19.044;2023-08-31T06:32:59;0.73;;;0.50;;
33760;SDS011;20084;47.912;19.044;2023-08-31T06:35:25;2.97;;;0.88;;
33760;SDS011;20084;47.912;19.044;2023-08-31T06:37:51;0.68;;;0.65;;
33760;SDS011;20084;47.912;19.044;2023-08-31T06:40:16;1.00;;;0.75;;
33760;SDS011;20084;47.912;19.044;2023-08-31T06:42:42;1.50;;;0.50;;
33760;SDS011;20084;47.912;19.044;2023-08-31T06:45:08;0.70;;;0.70;;
33760;SDS011;20084;47.912;19.044;2023-08-31T06:47:35;0.50;;;0.50;;
33760;SDS011;20084;47.912;19.044;2023-08-31T06:50:01;0.68;;;0.68;;
33760;SDS011;20084;47.912;19.044;2023-08-31T06:52:27;0.50;;;0.50;;
33760;SDS011;20084;47.912;19.044;2023-08-31T06:54:53;3.47;;;0.77;;
33760;SDS011;20084;47.912;19.044;2023-08-31T06:57:22;0.70;;;0.70;;
33760;SDS011;20084;47.912;19.044;2023-08-31T06:59:49;1.20;;;0.75;;
33760;SDS011;20084;47.912;19.044;2023-08-31T07:02:15;0.40;;;0.40;;
33760;SDS011;20084;47.912;19.044;2023-08-31T07:04:40;0.93;;;0.60;;
33760;SDS011;20084;47.912;19.044;2023-08-31T07:07:07;0.82;;;0.60;;
33760;SDS011;20084;47.912;19.044;2023-08-31T07:09:33;0.57;;;0.57;;
33760;SDS011;20084;47.912;19.044;2023-08-31T07:11:59;0.43;;;0.43;;
33760;SDS011;20084;47.912;19.044;2023-08-31T07:14:26;1.25;;;0.50;;
33760;SDS011;20084;47.912;19.044;2023-08-31T07:16:52;0.95;;;0.60;;
33760;SDS011;20084;47.912;19.044;2023-08-31T07:19:17;1.95;;;0.60;;
33760;SDS011;20084;47.912;19.044;2023-08-31T07:21:43;1.60;;;0.60;;
33760;SDS011;20084;47.912;19.044;2023-08-31T07:24:09;0.60;;;0.50;;
33760;SDS011;20084;47.912;19.044;2023-08-31T07:26:34;0.55;;;0.50;;
33760;SDS011;20084;47.912;19.044;2023-08-31T07:29:00;1.75;;;0.63;;
33760;SDS011;20084;47.912;19.044;2023-08-31T07:31:29;0.70;;;0.60;;
33760;SDS011;20084;47.912;19.044;2023-08-31T07:33:56;0.73;;;0.32;;
33760;SDS011;20084;47.912;19.044;2023-08-31T07:36:21;0.88;;;0.60;;
33760;SDS011;20084;47.912;19.044;2023-08-31T07:38:48;0.50;;;0.50;;
33760;SDS011;20084;47.912;19.044;2023-08-31T07:41:13;0.60;;;0.52;;
33760;SDS011;20084;47.912;19.044;2023-08-31T07:43:39;0.70;;;0.60;;
33760;SDS011;20084;47.912;19.044;2023-08-31T07:46:05;0.75;;;0.43;;
33760;SDS011;20084;47.912;19.044;2023-08-31T07:48:30;0.85;;;0.70;;
33760;SDS011;20084;47.912;19.044;2023-08-31T07:50:56;0.80;;;0.60;;
33760;SDS011;20084;47.912;19.044;2023-08-31T07:53:21;0.50;;;0.50;;
33760;SDS011;20084;47.912;19.044;2023-08-31T07:55:51;0.60;;;0.60;;
33760;SDS011;20084;47.912;19.044;2023-08-31T07:58:21;2.40;;;0.90;;
33760;SDS011;20084;47.912;19.044;2023-08-31T08:00:47;0.60;;;0.60;;
33760;SDS011;20084;47.912;19.044;2023-08-31T08:03:14;3.08;;;0.60;;
33760;SDS011;20084;47.912;19.044;2023-08-31T08:05:40;0.60;;;0.60;;
33760;SDS011;20084;47.912;19.044;2023-08-31T08:08:06;0.73;;;0.73;;
33760;SDS011;20084;47.912;19.044;2023-08-31T08:10:32;1.10;;;0.63;;
33760;SDS011;20084;47.912;19.044;2023-08-31T08:12:57;3.80;;;0.88;;
33760;SDS011;20084;47.912;19.044;2023-08-31T08:15:24;1.83;;;0.90;;
33760;SDS011;20084;47.912;19.044;2023-08-31T08:17:49;1.35;;;0.65;;
33760;SDS011;20084;47.912;19.044;2023-08-31T08:20:15;1.08;;;0.73;;
33760;SDS011;20084;47.912;19.044;2023-08-31T08:22:41;0.88;;;0.80;;
33760;SDS011;20084;47.912;19.044;2023-08-31T08:25:06;0.75;;;0.75;;
33760;SDS011;20084;47.912;19.044;2023-08-31T08:27:32;0.98;;;0.90;;
33760;SDS011;20084;47.912;19.044;2023-08-31T08:29:58;0.82;;;0.82;;
33760;SDS011;20084;47.912;19.044;2023-08-31T08:32:24;1.13;;;0.90;;
33760;SDS011;20084;47.912;19.044;2023-08-31T08:34:50;1.33;;;0.90;;
33760;SDS011;20084;47.912;19.044;2023-08-31T08:37:16;1.30;;;1.10;;
33760;SDS011;20084;47.912;19.044;2023-08-31T08:39:42;1.00;;;0.90;;
33760;SDS011;20084;47.912;19.044;2023-08-31T08:42:08;1.25;;;1.15;;
33760;SDS011;20084;47.912;19.044;2023-08-31T08:44:35;1.10;;;1.00;;
33760;SDS011;20084;47.912;19.044;2023-08-31T08:47:01;1.38;;;1.23;;
33760;SDS011;20084;47.912;19.044;2023-08-31T08:49:29;1.50;;;1.27;;
33760;SDS011;20084;47.912;19.044;2023-08-31T08:51:56;2.35;;;1.40;;
33760;SDS011;20084;47.912;19.044;2023-08-31T08:54:22;1.00;;;0.90;;
33760;SDS011;20084;47.912;19.044;2023-08-31T08:56:48;2.15;;;1.20;;
33760;SDS011;20084;47.912;19.044;2023-08-31T08:59:14;1.42;;;1.30;;
33760;SDS011;20084;47.912;19.044;2023-08-31T09:01:40;2.17;;;1.10;;
33760;SDS011;20084;47.912;19.044;2023-08-31T09:04:05;1.35;;;1.25;;
33760;SDS011;20084;47.912;19.044;2023-08-31T09:06:31;1.98;;;1.20;;
33760;SDS011;20084;47.912;19.044;2023-08-31T09:08:58;1.13;;;1.02;;
33760;SDS011;20084;47.912;19.044;2023-08-31T09:11:24;1.17;;;1.08;;
33760;SDS011;20084;47.912;19.044;2023-08-31T09:13:53;1.58;;;1.10;;
33760;SDS011;20084;47.912;19.044;2023-08-31T09:18:53;3.20;;;1.50;;
33760;SDS011;20084;47.912;19.044;2023-08-31T09:21:20;4.50;;;1.30;;
33760;SDS011;20084;47.912;19.044;2023-08-31T09:23:58;1.10;;;1.05;;
33760;SDS011;20084;47.912;19.044;2023-08-31T09:26:24;1.48;;;1.00;;
33760;SDS011;20084;47.912;19.044;2023-08-31T09:28:50;1.73;;;1.20;;
33760;SDS011;20084;47.912;19.044;2023-08-31T09:31:16;2.22;;;1.00;;
33760;SDS011;20084;47.912;19.044;2023-08-31T09:33:51;1.10;;;1.02;;
33760;SDS011;20084;47.912;19.044;2023-08-31T09:36:17;0.90;;;0.90;;
33760;SDS011;20084;47.912;19.044;2023-08-31T09:38:45;1.30;;;1.00;;
33760;SDS011;20084;47.912;19.044;2023-08-31T09:41:11;2.05;;;0.90;;
33760;SDS011;20084;47.912;19.044;2023-08-31T09:43:37;1.83;;;0.85;;
33760;SDS011;20084;47.912;19.044;2023-08-31T09:46:03;3.10;;;1.40;;
33760;SDS011;20084;47.912;19.044;2023-08-31T09:48:30;1.42;;;1.10;;
33760;SDS011;20084;47.912;19.044;2023-08-31T09:50:56;1.55;;;0.95;;
33760;SDS011;20084;47.912;19.044;2023-08-31T09:53:25;0.95;;;0.90;;
33760;SDS011;20084;47.912;19.044;2023-08-31T09:58:21;1.17;;;1.00;;
33760;SDS011;20084;47.912;19.044;2023-08-31T10:00:50;1.13;;;1.00;;
33760;SDS011;20084;47.912;19.044;2023-08-31T10:03:17;2.08;;;0.80;;
33760;SDS011;20084;47.912;19.044;2023-08-31T10:05:42;1.23;;;1.13;;
33760;SDS011;20084;47.912;19.044;2023-08-31T10:08:08;1.50;;;1.00;;
33760;SDS011;20084;47.912;19.044;2023-08-31T10:10:35;1.98;;;0.98;;
33760;SDS011;20084;47.912;19.044;2023-08-31T10:13:03;2.58;;;1.33;;
33760;SDS011;20084;47.912;19.044;2023-08-31T10:15:33;2.40;;;1.33;;
33760;SDS011;20084;47.912;19.044;2023-08-31T10:18:01;2.60;;;1.00;;
33760;SDS011;20084;47.912;19.044;2023-08-31T10:20:28;1.05;;;0.98;;
33760;SDS011;20084;47.912;19.044;2023-08-31T10:22:58;1.58;;;0.90;;
33760;SDS011;20084;47.912;19.044;2023-08-31T10:25:59;1.40;;;1.00;;
33760;SDS011;20084;47.912;19.044;2023-08-31T10:28:22;1.75;;;1.23;;
33760;SDS011;20084;47.912;19.044;2023-08-31T10:31:02;4.07;;;2.50;;
33760;SDS011;20084;47.912;19.044;2023-08-31T10:33:30;2.25;;;1.17;;
33760;SDS011;20084;47.912;19.044;2023-08-31T10:36:00;1.38;;;1.05;;
33760;SDS011;20084;47.912;19.044;2023-08-31T10:38:32;1.13;;;1.02;;
33760;SDS011;20084;47.912;19.044;2023-08-31T10:43:42;5.90;;;1.35;;
33760;SDS011;20084;47.912;19.044;2023-08-31T10:46:18;0.95;;;0.90;;
33760;SDS011;20084;47.912;19.044;2023-08-31T10:51:28;1.02;;;0.90;;
33760;SDS011;20084;47.912;19.044;2023-08-31T10:54:13;3.03;;;1.40;;
33760;SDS011;20084;47.912;19.044;2023-08-31T10:57:01;1.85;;;1.20;;
33760;SDS011;20084;47.912;19.044;2023-08-31T10:59:49;0.98;;;0.93;;
33760;SDS011;20084;47.912;19.044;2023-08-31T11:02:37;1.90;;;1.15;;
33760;SDS011;20084;47.912;19.044;2023-08-31T11:05:07;1.02;;;1.02;;
33760;SDS011;20084;47.912;19.044;2023-08-31T11:07:37;2.95;;;1.10;;
33760;SDS011;20084;47.912;19.044;2023-08-31T11:10:09;1.10;;;0.98;;
33760;SDS011;20084;47.912;19.044;2023-08-31T11:12:36;1.65;;;0.90;;
33760;SDS011;20084;47.912;19.044;2023-08-31T11:15:03;1.30;;;1.13;;
33760;SDS011;20084;47.912;19.044;2023-08-31T11:17:29;1.40;;;1.15;;
33760;SDS011;20084;47.912;19.044;2023-08-31T11:19:58;1.52;;;1.15;;
33760;SDS011;20084;47.912;19.044;2023-08-31T11:22:25;1.05;;;1.05;;
33760;SDS011;20084;47.912;19.044;2023-08-31T11:24:51;1.08;;;1.00;;
33760;SDS011;20084;47.912;19.044;2023-08-31T11:27:20;3.47;;;1.40;;
33760;SDS011;20084;47.912;19.044;2023-08-31T11:29:46;1.38;;;1.10;;
33760;SDS011;20084;47.912;19.044;2023-08-31T11:32:12;1.27;;;1.17;;
33760;SDS011;20084;47.912;19.044;2023-08-31T11:34:41;2.05;;;1.10;;
33760;SDS011;20084;47.912;19.044;2023-08-31T11:37:09;1.50;;;1.40;;
33760;SDS011;20084;47.912;19.044;2023-08-31T11:39:36;4.53;;;1.27;;
33760;SDS011;20084;47.912;19.044;2023-08-31T11:42:04;1.63;;;1.02;;
33760;SDS011;20084;47.912;19.044;2023-08-31T11:44:30;0.93;;;0.80;;
33760;SDS011;20084;47.912;19.044;2023-08-31T11:46:56;2.53;;;1.30;;
33760;SDS011;20084;47.912;19.044;2023-08-31T11:49:22;0.95;;;0.95;;
33760;SDS011;20084;47.912;19.044;2023-08-31T11:51:48;2.08;;;1.10;;
33760;SDS011;20084;47.912;19.044;2023-08-31T11:54:16;1.30;;;1.20;;
33760;SDS011;20084;47.912;19.044;2023-08-31T11:56:42;4.00;;;1.38;;
33760;SDS011;20084;47.912;19.044;2023-08-31T11:59:12;1.20;;;1.10;;
33760;SDS011;20084;47.912;19.044;2023-08-31T12:01:43;1.30;;;1.20;;
33760;SDS011;20084;47.912;19.044;2023-08-31T12:04:22;1.30;;;0.98;;
33760;SDS011;20084;47.912;19.044;2023-08-31T12:06:50;1.25;;;0.95;;
33760;SDS011;20084;47.912;19.044;2023-08-31T12:09:16;1.45;;;1.10;;
33760;SDS011;20084;47.912;19.044;2023-08-31T12:11:42;1.38;;;0.88;;
33760;SDS011;20084;47.912;19.044;2023-08-31T12:16:44;1.20;;;0.85;;
33760;SDS011;20084;47.912;19.044;2023-08-31T12:19:10;0.90;;;0.90;;
33760;SDS011;20084;47.912;19.044;2023-08-31T12:21:35;1.20;;;1.08;;
33760;SDS011;20084;47.912;19.044;2023-08-31T12:24:01;0.85;;;0.77;;
33760;SDS011;20084;47.912;19.044;2023-08-31T12:26:28;2.38;;;1.00;;
33760;SDS011;20084;47.912;19.044;2023-08-31T12:28:54;1.83;;;1.05;;
33760;SDS011;20084;47.912;19.044;2023-08-31T12:31:20;2.25;;;0.90;;
33760;SDS011;20084;47.912;19.044;2023-08-31T12:33:47;1.05;;;1.02;;
33760;SDS011;20084;47.912;19.044;2023-08-31T12:36:12;0.88;;;0.70;;
33760;SDS011;20084;47.912;19.044;2023-08-31T12:38:38;0.80;;;0.70;;
33760;SDS011;20084;47.912;19.044;2023-08-31T12:41:04;1.35;;;1.00;;
33760;SDS011;20084;47.912;19.044;2023-08-31T12:43:30;1.55;;;1.08;;
33760;SDS011;20084;47.912;19.044;2023-08-31T12:45:56;1.85;;;0.88;;
33760;SDS011;20084;47.912;19.044;2023-08-31T12:48:22;1.63;;;0.90;;
33760;SDS011;20084;47.912;19.044;2023-08-31T12:50:48;1.00;;;1.00;;
33760;SDS011;20084;47.912;19.044;2023-08-31T12:53:14;2.75;;;1.10;;
33760;SDS011;20084;47.912;19.044;2023-08-31T12:55:40;0.80;;;0.80;;
33760;SDS011;20084;47.912;19.044;2023-08-31T12:58:05;1.10;;;0.80;;
33760;SDS011;20084;47.912;19.044;2023-08-31T13:00:31;1.15;;;0.70;;
33760;SDS011;20084;47.912;19.044;2023-08-31T13:02:57;2.47;;;0.77;;
33760;SDS011;20084;47.912;19.044;2023-08-31T13:05:22;10.13;;;1.00;;
33760;SDS011;20084;47.912;19.044;2023-08-31T13:07:48;3.70;;;1.20;;
33760;SDS011;20084;47.912;19.044;2023-08-31T13:10:14;2.72;;;1.20;;
33760;SDS011;20084;47.912;19.044;2023-08-31T13:12:39;1.20;;;1.02;;
33760;SDS011;20084;47.912;19.044;2023-08-31T13:15:05;0.70;;;0.70;;
33760;SDS011;20084;47.912;19.044;2023-08-31T13:17:32;2.15;;;1.17;;
33760;SDS011;20084;47.912;19.044;2023-08-31T13:19:58;3.25;;;1.00;;
33760;SDS011;20084;47.912;19.044;2023-08-31T13:22:24;6.38;;;0.95;;
33760;SDS011;20084;47.912;19.044;2023-08-31T13:24:50;1.23;;;0.90;;
33760;SDS011;20084;47.912;19.044;2023-08-31T13:27:17;0.82;;;0.80;;
33760;SDS011;20084;47.912;19.044;2023-08-31T13:29:43;1.65;;;0.90;;
33760;SDS011;20084;47.912;19.044;2023-08-31T13:32:09;1.98;;;1.25;;
33760;SDS011;20084;47.912;19.044;2023-08-31T13:34:35;1.67;;;0.82;;
33760;SDS011;20084;47.912;19.044;2023-08-31T13:37:04;0.75;;;0.70;;
33760;SDS011;20084;47.912;19.044;2023-08-31T13:39:30;1.15;;;1.05;;
33760;SDS011;20084;47.912;19.044;2023-08-31T13:41:56;1.27;;;0.90;;
33760;SDS011;20084;47.912;19.044;2023-08-31T13:44:22;1.30;;;0.90;;
33760;SDS011;20084;47.912;19.044;2023-08-31T13:46:48;1.05;;;0.95;;
33760;SDS011;20084;47.912;19.044;2023-08-31T13:49:14;5.50;;;0.70;;
33760;SDS011;20084;47.912;19.044;2023-08-31T13:51:40;1.20;;;0.93;;
33760;SDS011;20084;47.912;19.044;2023-08-31T13:54:07;1.08;;;0.90;;
33760;SDS011;20084;47.912;19.044;2023-08-31T13:56:33;0.88;;;0.80;;
33760;SDS011;20084;47.912;19.044;2023-08-31T13:58:59;1.13;;;1.05;;
33760;SDS011;20084;47.912;19.044;2023-08-31T14:01:25;1.10;;;1.00;;
33760;SDS011;20084;47.912;19.044;2023-08-31T14:03:51;2.50;;;1.23;;
33760;SDS011;20084;47.912;19.044;2023-08-31T14:06:16;1.58;;;1.20;;
33760;SDS011;20084;47.912;19.044;2023-08-31T14:08:42;1.20;;;1.10;;
33760;SDS011;20084;47.912;19.044;2023-08-31T14:11:08;3.70;;;0.98;;
33760;SDS011;20084;47.912;19.044;2023-08-31T14:13:33;1.25;;;0.98;;
33760;SDS011;20084;47.912;19.044;2023-08-31T14:15:59;0.95;;;0.73;;
33760;SDS011;20084;47.912;19.044;2023-08-31T14:18:28;1.85;;;1.08;;
33760;SDS011;20084;47.912;19.044;2023-08-31T14:20:55;1.10;;;1.00;;
33760;SDS011;20084;47.912;19.044;2023-08-31T14:23:23;2.17;;;0.93;;
33760;SDS011;20084;47.912;19.044;2023-08-31T14:25:48;1.15;;;0.90;;
33760;SDS011;20084;47.912;19.044;2023-08-31T14:28:14;1.02;;;0.90;;
33760;SDS011;20084;47.912;19.044;2023-08-31T14:30:40;2.78;;;1.10;;
33760;SDS011;20084;47.912;19.044;2023-08-31T14:33:06;2.13;;;0.93;;
33760;SDS011;20084;47.912;19.044;2023-08-31T14:35:35;1.15;;;0.80;;
33760;SDS011;20084;47.912;19.044;2023-08-31T14:38:01;1.30;;;0.90;;
33760;SDS011;20084;47.912;19.044;2023-08-31T14:40:27;2.25;;;1.00;;
33760;SDS011;20084;47.912;19.044;2023-08-31T14:42:53;2.20;;;1.00;;
33760;SDS011;20084;47.912;19.044;2023-08-31T14:45:19;1.65;;;1.13;;
33760;SDS011;20084;47.912;19.044;2023-08-31T14:47:46;0.80;;;0.80;;
33760;SDS011;20084;47.912;19.044;2023-08-31T14:50:12;1.02;;;0.80;;